sensor_id;sensor_type;location;lat;lon;timestamp;pressure;altitude;pressure_sealevel;temperature;humidity
50650;BME280;36621;60.058;30.346;2022-08-20T18:15:28;101887.69;;;24.82;33.50
50650;BME280;36621;60.058;30.346;2022-08-20T18:23:02;101886.81;;;24.69;34.26
50650;BME280;36621;60.058;30.346;2022-08-20T18:30:44;101885.28;;;24.50;35.09
50650;BME280;36621;60.058;30.346;2022-08-20T18:38:26;101887.88;;;24.34;35.47
50650;BME280;36621;60.058;30.346;2022-08-20T18:46:07;101884.31;;;24.25;35.54
50650;BME280;36621;60.058;30.346;2022-08-20T18:53:45;101860.53;;;23.98;36.36
50650;BME280;36621;60.058;30.346;2022-08-20T19:01:18;101882.31;;;24.04;36.25
50650;BME280;36621;60.058;30.346;2022-08-20T19:08:50;101875.78;;;24.00;36.29
50650;BME280;36621;60.058;30.346;2022-08-20T19:16:31;101879.75;;;23.99;36.24
50650;BME280;36621;60.058;30.346;2022-08-20T19:24:05;101881.06;;;23.93;36.52
50650;BME280;36621;60.058;30.346;2022-08-20T19:31:38;101892.22;;;23.84;36.65
50650;BME280;36621;60.058;30.346;2022-08-20T19:39:12;101898.81;;;23.80;36.64
50650;BME280;36621;60.058;30.346;2022-08-20T19:46:45;101891.63;;;23.70;36.82
50650;BME280;36621;60.058;30.346;2022-08-20T19:54:18;101899.38;;;23.64;36.77
50650;BME280;36621;60.058;30.346;2022-08-20T20:01:52;101901.84;;;23.57;36.89
50650;BME280;36621;60.058;30.346;2022-08-20T20:09:29;101899.28;;;23.52;36.75
50650;BME280;36621;60.058;30.346;2022-08-20T20:17:03;101898.78;;;23.41;37.03
50650;BME280;36621;60.058;30.346;2022-08-20T20:24:39;101895.06;;;23.28;36.84
50650;BME280;36621;60.058;30.346;2022-08-20T20:32:14;101898.72;;;23.20;36.78
50650;BME280;36621;60.058;30.346;2022-08-20T20:39:47;101891.66;;;23.14;37.04
50650;BME280;36621;60.058;30.346;2022-08-20T20:47:29;101900.84;;;23.05;37.13
50650;BME280;36621;60.058;30.346;2022-08-20T20:55:06;101892.66;;;22.92;37.29
50650;BME280;36621;60.058;30.346;2022-08-20T21:02:39;101893.66;;;22.78;37.71
50650;BME280;36621;60.058;30.346;2022-08-20T21:10:11;101891.69;;;22.61;37.98
50650;BME280;36621;60.058;30.346;2022-08-20T21:17:44;101893.31;;;22.53;38.00
50650;BME280;36621;60.058;30.346;2022-08-20T21:25:16;101897.88;;;22.41;38.10
50650;BME280;36621;60.058;30.346;2022-08-20T21:32:49;101913.59;;;22.36;38.27
50650;BME280;36621;60.058;30.346;2022-08-20T21:40:20;101916.66;;;22.26;38.29
50650;BME280;36621;60.058;30.346;2022-08-20T21:47:53;101902.88;;;22.21;38.36
50650;BME280;36621;60.058;30.346;2022-08-20T21:55:25;101917.41;;;22.09;38.77
50650;BME280;36621;60.058;30.346;2022-08-20T22:02:57;101918.88;;;22.07;38.75
50650;BME280;36621;60.058;30.346;2022-08-20T22:10:29;101915.44;;;22.10;38.92
50650;BME280;36621;60.058;30.346;2022-08-20T22:18:01;101924.59;;;22.01;38.90
50650;BME280;36621;60.058;30.346;2022-08-20T22:25:34;101915.56;;;21.87;39.01
50650;BME280;36621;60.058;30.346;2022-08-20T22:33:08;101916.34;;;21.79;39.39
50650;BME280;36621;60.058;30.346;2022-08-20T22:40:41;101921.22;;;21.73;39.56
50650;BME280;36621;60.058;30.346;2022-08-20T22:48:14;101915.47;;;21.70;39.72
50650;BME280;36621;60.058;30.346;2022-08-20T22:55:47;101902.19;;;21.66;39.46
50650;BME280;36621;60.058;30.346;2022-08-20T23:03:19;101896.97;;;21.65;39.88
50650;BME280;36621;60.058;30.346;2022-08-20T23:10:51;101888.09;;;21.54;40.18
50650;BME280;36621;60.058;30.346;2022-08-20T23:18:24;101890.44;;;21.38;40.85
50650;BME280;36621;60.058;30.346;2022-08-20T23:25:55;101879.81;;;21.40;40.66
50650;BME280;36621;60.058;30.346;2022-08-20T23:33:28;101885.84;;;21.33;41.23
50650;BME280;36621;60.058;30.346;2022-08-20T23:41:01;101883.09;;;21.11;41.65
50650;BME280;36621;60.058;30.346;2022-08-20T23:48:33;101869.97;;;21.03;42.29
50650;BME280;36621;60.058;30.346;2022-08-20T23:56:05;101878.06;;;20.90;42.55
